createdAt,value
2019-01-23T00:01:08.582Z,-1.63
2019-01-23T00:03:44.457Z,-1.65
2019-01-23T00:06:14.443Z,-1.63
2019-01-23T00:08:44.249Z,-1.61
2019-01-23T00:11:14.118Z,-1.61
2019-01-23T00:13:43.939Z,-1.60
2019-01-23T00:16:14.083Z,-1.60
2019-01-23T00:18:44.091Z,-1.59
2019-01-23T00:21:17.708Z,-1.56
2019-01-23T00:23:49.177Z,-1.59
2019-01-23T00:26:18.974Z,-1.58
2019-01-23T00:28:48.796Z,-1.61
2019-01-23T00:31:20.083Z,-1.62
2019-01-23T00:33:50.012Z,-1.64
2019-01-23T00:36:20.006Z,-1.65
2019-01-23T00:38:49.887Z,-1.65
2019-01-23T00:41:19.685Z,-1.60
2019-01-23T00:43:50.188Z,-1.71
2019-01-23T00:46:20.187Z,-1.71
2019-01-23T00:48:49.986Z,-1.68
2019-01-23T00:51:19.766Z,-1.64
2019-01-23T00:53:49.741Z,-1.66
2019-01-23T00:56:23.759Z,-1.69
2019-01-23T00:58:55.191Z,-1.72
2019-01-23T01:01:35.959Z,-1.72
2019-01-23T01:04:13.527Z,-1.72
2019-01-23T01:06:53.286Z,-1.72
2019-01-23T01:09:23.009Z,-1.69
2019-01-23T01:11:57.634Z,-1.76
2019-01-23T01:14:43.267Z,-1.75
2019-01-23T01:17:21.396Z,-1.71
2019-01-23T01:20:02.403Z,-1.71
2019-01-23T01:22:50.215Z,-1.77
2019-01-23T01:25:33.933Z,-1.77
2019-01-23T01:28:12.805Z,-1.81
2019-01-23T01:30:44.357Z,-1.80
2019-01-23T01:33:16.005Z,-1.83
2019-01-23T01:35:45.906Z,-1.86
2019-01-23T01:38:23.354Z,-1.90
2019-01-23T01:41:09.975Z,-1.97
2019-01-23T01:43:52.519Z,-2.00
2019-01-23T01:46:25.525Z,-2.01
2019-01-23T01:49:03.236Z,-1.99
2019-01-23T01:51:54.286Z,-1.97
2019-01-23T01:54:39.170Z,-2.01
2019-01-23T01:57:18.577Z,-2.04
2019-01-23T01:59:51.907Z,-2.07
2019-01-23T02:02:35.144Z,-2.07
2019-01-23T02:05:10.586Z,-2.09
2019-01-23T02:07:44.768Z,-2.12
2019-01-23T02:10:30.608Z,-2.08
2019-01-23T02:13:11.265Z,-2.07
2019-01-23T02:15:49.216Z,-2.14
2019-01-23T02:18:30.883Z,-2.10
2019-01-23T02:21:03.522Z,-2.11
2019-01-23T02:23:39.757Z,-2.09
2019-01-23T02:26:12.215Z,-2.12
2019-01-23T02:29:12.067Z,-2.10
2019-01-23T02:32:01.132Z,-2.08
2019-01-23T02:34:54.686Z,-2.13
2019-01-23T02:37:31.951Z,-2.14
2019-01-23T02:40:04.303Z,-2.13
2019-01-23T02:42:34.119Z,-2.10
2019-01-23T02:45:10.103Z,-2.15
2019-01-23T02:47:40.381Z,-2.16
2019-01-23T02:50:39.961Z,-2.18
2019-01-23T02:53:19.020Z,-2.17
2019-01-23T02:55:51.053Z,-2.21
2019-01-23T02:58:41.082Z,-2.21
2019-01-23T03:01:10.882Z,-2.22
2019-01-23T03:03:42.338Z,-2.26
2019-01-23T03:06:12.314Z,-2.25
2019-01-23T03:08:42.152Z,-2.29
2019-01-23T03:11:13.023Z,-2.30
2019-01-23T03:13:44.378Z,-2.29
2019-01-23T03:16:23.649Z,-2.28
2019-01-23T03:19:02.681Z,-2.25
2019-01-23T03:21:33.276Z,-2.24
2019-01-23T03:24:25.338Z,-2.28
2019-01-23T03:26:56.788Z,-2.28
2019-01-23T03:29:30.361Z,-2.33
2019-01-23T03:32:00.186Z,-2.28
2019-01-23T03:34:29.978Z,-2.24
2019-01-23T03:37:01.475Z,-2.21
2019-01-23T03:39:31.965Z,-2.22
2019-01-23T03:42:02.475Z,-2.23
2019-01-23T03:44:32.329Z,-2.24
2019-01-23T03:47:02.140Z,-2.22
2019-01-23T03:49:31.859Z,-2.23
2019-01-23T03:52:01.715Z,-2.20
2019-01-23T03:54:31.510Z,-2.19
2019-01-23T03:57:01.462Z,-2.20
2019-01-23T03:59:32.466Z,-2.24
2019-01-23T04:02:06.624Z,-2.28
2019-01-23T04:04:52.393Z,-2.26
2019-01-23T04:07:26.782Z,-2.24
2019-01-23T04:09:57.294Z,-2.18
2019-01-23T04:12:27.667Z,-2.19
2019-01-23T04:15:03.875Z,-2.25
2019-01-23T04:17:36.738Z,-2.26
2019-01-23T04:20:28.338Z,-2.24
2019-01-23T04:23:04.053Z,-2.24
2019-01-23T04:25:47.525Z,-2.25
2019-01-23T04:28:25.440Z,-2.25
2019-01-23T04:31:04.168Z,-2.28
2019-01-23T04:33:39.552Z,-2.28
2019-01-23T04:36:18.635Z,-2.27
2019-01-23T04:38:50.980Z,-2.30
2019-01-23T04:41:31.686Z,-2.27
2019-01-23T04:44:15.554Z,-2.27
2019-01-23T04:46:48.053Z,-2.34
2019-01-23T04:49:46.581Z,-2.34
2019-01-23T04:52:27.960Z,-2.39
2019-01-23T04:58:01.392Z,-2.25
2019-01-23T05:00:41.084Z,-2.49
2019-01-23T05:03:19.285Z,-2.66
2019-01-23T05:05:58.248Z,-2.73
2019-01-23T05:08:56.173Z,-2.71
2019-01-23T05:15:14.126Z,-2.58
2019-01-23T05:30:22.013Z,-2.55
2019-01-23T05:45:26.653Z,-2.79
2019-01-23T05:48:10.083Z,-1.15
2019-01-23T05:50:39.962Z,-0.24
2019-01-23T05:53:10.331Z,-0.20
2019-01-23T05:55:40.283Z,-0.34
2019-01-23T05:58:10.265Z,-0.53
2019-01-23T06:00:40.078Z,-0.46
2019-01-23T06:03:09.864Z,-0.94
2019-01-23T06:05:39.589Z,-1.28
2019-01-23T06:08:09.442Z,-1.54
2019-01-23T06:10:46.926Z,-1.71
2019-01-23T06:13:24.218Z,-1.82
2019-01-23T06:15:54.185Z,-1.97
2019-01-23T06:18:24.160Z,-2.09
2019-01-23T06:20:55.588Z,-2.11
2019-01-23T06:23:27.197Z,-2.14
2019-01-23T06:25:57.047Z,-2.13
2019-01-23T06:28:26.884Z,-2.10
2019-01-23T06:30:56.679Z,-2.08
2019-01-23T06:33:26.569Z,-2.07
2019-01-23T06:35:56.386Z,-2.09
2019-01-23T06:38:26.182Z,-2.18
2019-01-23T06:40:56.248Z,-2.31
2019-01-23T06:43:26.061Z,-2.33
2019-01-23T06:45:56.080Z,-2.36
2019-01-23T06:48:27.871Z,-2.38
2019-01-23T06:51:10.973Z,-2.39
2019-01-23T06:53:40.844Z,-2.33
2019-01-23T07:03:02.994Z,-2.46
2019-01-23T07:05:36.919Z,-2.54
2019-01-23T07:08:26.066Z,-2.46
2019-01-23T07:11:09.031Z,-2.35
2019-01-23T07:13:45.738Z,-2.32
2019-01-23T07:16:30.112Z,-2.32
2019-01-23T07:19:18.844Z,-2.23
2019-01-23T07:22:04.959Z,-2.22
2019-01-23T07:24:39.956Z,-2.15
2019-01-23T07:27:36.220Z,-2.22
2019-01-23T07:30:33.440Z,-2.25
2019-01-23T07:33:35.405Z,-2.21
2019-01-23T07:36:11.461Z,-2.25
2019-01-23T07:41:57.068Z,-2.33
2019-01-23T07:44:34.051Z,-2.41
2019-01-23T07:47:19.597Z,-2.42
2019-01-23T07:53:15.801Z,-2.19
2019-01-23T07:58:46.252Z,-2.04
2019-01-23T08:01:39.162Z,-2.01
2019-01-23T08:04:16.890Z,-2.10
2019-01-23T08:06:56.380Z,-2.02
2019-01-23T08:09:33.991Z,-2.08
2019-01-23T08:12:14.287Z,-2.03
2019-01-23T08:14:59.811Z,-1.95
2019-01-23T08:17:33.152Z,-1.92
2019-01-23T08:20:09.722Z,-1.93
2019-01-23T08:22:39.737Z,-1.92
2019-01-23T08:25:09.384Z,-1.72
2019-01-23T08:27:40.851Z,-1.62
2019-01-23T08:30:19.817Z,-1.52
2019-01-23T08:32:49.480Z,-1.49
2019-01-23T08:35:20.158Z,-1.47
2019-01-23T08:37:50.405Z,-1.37
2019-01-23T08:40:20.243Z,-1.33
2019-01-23T08:42:52.619Z,-1.33
2019-01-23T08:45:22.367Z,-1.28
2019-01-23T08:47:52.349Z,-1.20
2019-01-23T08:50:40.720Z,-1.09
2019-01-23T08:53:14.633Z,-1.14
2019-01-23T08:55:44.504Z,-1.20
2019-01-23T08:58:20.077Z,-1.08
2019-01-23T09:00:51.542Z,-1.07
2019-01-23T09:03:21.265Z,-1.06
2019-01-23T09:05:51.632Z,-0.98
2019-01-23T09:08:21.455Z,-1.02
2019-01-23T09:10:51.259Z,-0.87
2019-01-23T09:13:21.242Z,-0.73
2019-01-23T09:15:51.081Z,-0.65
2019-01-23T09:18:34.753Z,-0.49
2019-01-23T09:21:04.597Z,-0.36
2019-01-23T09:23:34.382Z,-0.25
2019-01-23T09:26:04.193Z,-0.29
2019-01-23T09:28:34.386Z,-0.09
2019-01-23T09:31:09.671Z,-0.04
2019-01-23T09:33:42.533Z,0.15
2019-01-23T09:36:28.809Z,0.13
2019-01-23T09:39:21.160Z,0.59
2019-01-23T09:42:29.017Z,0.59
2019-01-23T09:45:25.099Z,0.58
2019-01-23T09:48:15.623Z,0.53
2019-01-23T09:51:14.688Z,0.37
2019-01-23T09:53:49.529Z,0.27
2019-01-23T09:56:20.396Z,0.21
2019-01-23T09:58:50.105Z,0.07
2019-01-23T10:01:19.961Z,0.09
2019-01-23T10:03:53.234Z,0.11
2019-01-23T10:06:23.069Z,0.11
2019-01-23T10:08:52.905Z,0.11
2019-01-23T10:11:23.200Z,-0.03
2019-01-23T10:13:53.485Z,-0.16
2019-01-23T10:16:23.361Z,-0.20
2019-01-23T10:18:56.129Z,-0.15
2019-01-23T10:21:24.727Z,-0.15
2019-01-23T10:23:54.932Z,-0.04
2019-01-23T10:26:24.845Z,0.02
2019-01-23T10:28:54.849Z,0.02
2019-01-23T10:31:25.620Z,0.05
2019-01-23T10:33:55.611Z,0.07
2019-01-23T10:36:25.502Z,0.03
2019-01-23T10:38:55.201Z,0.03
2019-01-23T10:41:25.578Z,0.17
2019-01-23T10:43:55.296Z,0.06
2019-01-23T10:46:25.306Z,0.15
2019-01-23T10:48:55.948Z,0.15
2019-01-23T10:51:25.795Z,0.17
2019-01-23T10:53:55.620Z,0.19
2019-01-23T10:56:25.569Z,0.36
2019-01-23T10:58:55.453Z,0.47
2019-01-23T11:01:25.191Z,0.37
2019-01-23T11:03:55.231Z,0.37
2019-01-23T11:06:25.211Z,0.35
2019-01-23T11:08:55.128Z,0.48
2019-01-23T11:11:25.147Z,0.59
2019-01-23T11:13:54.942Z,0.61
2019-01-23T11:16:25.841Z,0.95
2019-01-23T11:18:55.508Z,1.28
2019-01-23T11:21:25.950Z,1.30
2019-01-23T11:23:55.772Z,1.25
2019-01-23T11:26:25.501Z,1.04
2019-01-23T11:28:55.347Z,0.95
2019-01-23T11:31:26.988Z,0.71
2019-01-23T11:33:56.792Z,0.71
2019-01-23T11:36:26.628Z,0.80
2019-01-23T11:38:56.412Z,0.90
2019-01-23T11:41:26.376Z,0.90
2019-01-23T11:43:56.344Z,0.84
2019-01-23T11:46:26.213Z,0.90
2019-01-23T11:48:56.016Z,0.96
2019-01-23T11:51:26.810Z,0.96
2019-01-23T11:53:58.591Z,0.92
2019-01-23T11:56:28.674Z,0.88
2019-01-23T11:58:58.485Z,0.91
2019-01-23T12:01:28.310Z,0.88
2019-01-23T12:03:58.244Z,0.84
2019-01-23T12:06:28.072Z,0.87
2019-01-23T12:08:57.902Z,0.80
2019-01-23T12:11:27.685Z,0.89
2019-01-23T12:13:57.529Z,0.88
2019-01-23T12:16:27.480Z,0.81
2019-01-23T12:18:57.176Z,0.81
2019-01-23T12:21:27.031Z,0.59
2019-01-23T12:23:58.413Z,0.99
2019-01-23T12:26:28.253Z,1.15
2019-01-23T12:29:00.764Z,1.12
2019-01-23T12:31:34.861Z,0.99
2019-01-23T12:34:02.467Z,0.99
2019-01-23T12:36:32.259Z,0.94
2019-01-23T12:39:02.100Z,0.96
2019-01-23T12:41:31.871Z,0.83
2019-01-23T12:44:01.682Z,0.92
2019-01-23T12:46:31.525Z,0.97
2019-01-23T12:49:02.934Z,0.97
2019-01-23T12:51:32.807Z,0.92
2019-01-23T12:54:02.611Z,0.99
2019-01-23T12:56:32.374Z,1.02
2019-01-23T12:59:02.308Z,0.92
2019-01-23T13:01:31.946Z,0.88
2019-01-23T13:04:01.764Z,0.79
2019-01-23T13:06:31.610Z,0.90
2019-01-23T13:09:01.520Z,0.99
2019-01-23T13:11:31.390Z,0.99
2019-01-23T13:14:01.167Z,0.94
2019-01-23T13:16:30.959Z,0.87
2019-01-23T13:19:00.798Z,0.87
2019-01-23T13:21:30.546Z,0.85
2019-01-23T13:24:00.341Z,0.80
2019-01-23T13:26:32.178Z,0.77
2019-01-23T13:29:01.957Z,0.71
2019-01-23T13:31:31.803Z,0.60
2019-01-23T13:34:01.639Z,0.61
2019-01-23T13:36:31.481Z,0.61
2019-01-23T13:39:01.202Z,0.54
2019-01-23T13:41:31.127Z,0.44
2019-01-23T13:44:02.409Z,0.44
2019-01-23T13:46:32.246Z,0.40
2019-01-23T13:49:02.045Z,0.38
2019-01-23T13:51:31.787Z,0.33
2019-01-23T13:54:02.445Z,0.33
2019-01-23T13:56:32.278Z,0.28
2019-01-23T13:59:03.710Z,0.21
2019-01-23T14:01:33.500Z,0.12
2019-01-23T14:04:03.436Z,0.10
2019-01-23T14:06:34.760Z,0.10
2019-01-23T14:09:06.459Z,0.06
2019-01-23T14:11:36.434Z,0.04
2019-01-23T14:14:06.292Z,0.04
2019-01-23T14:16:36.092Z,0.03
2019-01-23T14:19:05.908Z,-0.16
2019-01-23T14:21:36.580Z,-0.16
2019-01-23T14:24:06.606Z,-0.19
2019-01-23T14:26:36.516Z,-0.12
2019-01-23T14:29:06.911Z,-0.12
2019-01-23T14:31:36.923Z,-0.11
2019-01-23T14:34:07.790Z,-0.11
2019-01-23T14:36:37.604Z,-0.11
2019-01-23T14:39:08.001Z,-0.14
2019-01-23T14:41:37.745Z,-0.18
2019-01-23T14:44:07.627Z,-0.23
2019-01-23T14:46:37.464Z,-0.32
2019-01-23T14:49:07.217Z,-0.35
2019-01-23T14:51:37.032Z,-0.39
2019-01-23T14:54:06.849Z,-0.48
2019-01-23T14:56:37.623Z,-0.48
2019-01-23T14:59:07.420Z,-0.52
2019-01-23T15:01:37.232Z,-0.57
2019-01-23T15:04:07.971Z,-0.61
2019-01-23T15:06:39.468Z,-0.56
2019-01-23T15:09:09.446Z,-0.55
2019-01-23T15:11:39.188Z,-0.61
2019-01-23T15:14:09.191Z,-0.67
2019-01-23T15:16:39.187Z,-0.76
2019-01-23T15:19:10.413Z,-0.90
2019-01-23T15:21:40.619Z,-0.90
2019-01-23T15:24:10.614Z,-0.91
2019-01-23T15:26:40.369Z,-0.99
2019-01-23T15:29:10.858Z,-1.05
2019-01-23T15:31:40.583Z,-1.10
2019-01-23T15:34:10.321Z,-1.17
2019-01-23T15:36:40.079Z,-1.15
2019-01-23T15:39:10.407Z,-1.19
2019-01-23T15:41:40.227Z,-1.19
2019-01-23T15:44:10.105Z,-1.24
2019-01-23T15:46:40.401Z,-1.28
2019-01-23T15:49:10.207Z,-1.30
2019-01-23T15:51:40.123Z,-1.29
2019-01-23T15:54:10.444Z,-1.31
2019-01-23T15:56:40.255Z,-1.34
2019-01-23T15:59:11.129Z,-1.32
2019-01-23T16:01:40.853Z,-1.31
2019-01-23T16:04:10.855Z,-1.18
2019-01-23T16:06:41.273Z,-1.22
2019-01-23T16:09:11.036Z,-1.27
2019-01-23T16:11:40.899Z,-1.30
2019-01-23T16:14:10.708Z,-1.33
2019-01-23T16:16:40.623Z,-1.39
2019-01-23T16:19:11.262Z,-1.40
2019-01-23T16:21:45.570Z,-1.39
2019-01-23T16:24:12.558Z,-1.43
2019-01-23T16:26:42.414Z,-1.48
2019-01-23T16:29:13.727Z,-1.48
2019-01-23T16:31:46.969Z,-1.48
2019-01-23T16:34:16.788Z,-1.53
2019-01-23T16:36:46.607Z,-1.54
2019-01-23T16:39:16.494Z,-1.57
2019-01-23T16:41:46.541Z,-1.60
2019-01-23T16:44:16.266Z,-1.60
2019-01-23T16:46:45.988Z,-1.64
2019-01-23T16:49:16.041Z,-1.65
2019-01-23T16:51:51.355Z,-1.63
2019-01-23T16:54:20.163Z,-1.65
2019-01-23T16:56:50.188Z,-1.62
2019-01-23T16:59:20.012Z,-1.62
2019-01-23T17:01:50.913Z,-1.66
2019-01-23T17:04:21.496Z,-1.64
2019-01-23T17:06:51.245Z,-1.64
2019-01-23T17:09:21.035Z,-1.68
2019-01-23T17:11:50.900Z,-1.68
2019-01-23T17:14:21.625Z,-1.68
2019-01-23T17:16:51.449Z,-1.67
2019-01-23T17:19:21.309Z,-1.61
2019-01-23T17:21:51.236Z,-1.64
2019-01-23T17:24:21.028Z,-1.66
2019-01-23T17:26:51.058Z,-1.67
2019-01-23T17:29:21.419Z,-1.68
2019-01-23T17:31:52.054Z,-1.65
2019-01-23T17:34:22.128Z,-1.65
2019-01-23T17:36:51.920Z,-1.65
2019-01-23T17:39:21.753Z,-1.62
2019-01-23T17:41:51.626Z,-1.61
2019-01-23T17:44:21.467Z,-1.61
2019-01-23T17:46:51.566Z,-1.61
2019-01-23T17:49:26.526Z,-1.60
2019-01-23T17:51:56.349Z,-1.62
2019-01-23T17:54:26.198Z,-1.65
2019-01-23T17:56:56.253Z,-1.60
2019-01-23T17:59:26.220Z,-1.52
2019-01-23T18:01:56.375Z,-1.10
2019-01-23T18:04:26.535Z,-1.14
2019-01-23T18:06:56.390Z,-1.23
2019-01-23T18:09:26.237Z,-1.30
2019-01-23T18:11:56.271Z,-1.33
2019-01-23T18:14:26.193Z,-1.39
2019-01-23T18:16:56.212Z,-1.43
2019-01-23T18:19:26.015Z,-1.43
2019-01-23T18:21:55.807Z,-1.43
2019-01-23T18:24:26.830Z,-1.39
2019-01-23T18:26:58.093Z,-1.29
2019-01-23T18:29:29.543Z,-1.43
2019-01-23T18:32:02.466Z,-1.51
2019-01-23T18:35:01.008Z,-1.58
2019-01-23T18:37:35.524Z,-1.57
2019-01-23T18:40:31.318Z,-1.54
2019-01-23T18:43:19.294Z,-1.50
2019-01-23T18:46:00.576Z,-1.48
2019-01-23T18:48:45.835Z,-1.44
2019-01-23T18:51:19.640Z,-1.43
2019-01-23T18:53:49.479Z,-1.48
2019-01-23T18:56:19.278Z,-1.49
2019-01-23T18:58:49.176Z,-1.51
2019-01-23T19:01:19.060Z,-1.55
2019-01-23T19:03:48.913Z,-1.53
2019-01-23T19:06:21.247Z,-1.54
2019-01-23T19:08:52.698Z,-1.54
2019-01-23T19:11:23.872Z,-1.58
2019-01-23T19:13:54.151Z,-1.57
2019-01-23T19:16:24.288Z,-1.57
2019-01-23T19:18:56.101Z,-1.50
2019-01-23T19:21:25.913Z,-1.48
2019-01-23T19:23:56.793Z,-1.50
2019-01-23T19:26:26.629Z,-1.45
2019-01-23T19:28:56.470Z,-1.46
2019-01-23T19:31:26.351Z,-1.44
2019-01-23T19:33:57.225Z,-1.48
2019-01-23T19:36:26.963Z,-1.49
2019-01-23T19:38:57.527Z,-1.49
2019-01-23T19:41:27.631Z,-1.50
2019-01-23T19:43:57.427Z,-1.51
2019-01-23T19:46:27.343Z,-1.54
2019-01-23T19:48:57.146Z,-1.56
2019-01-23T19:51:29.030Z,-1.52
2019-01-23T19:53:59.066Z,-1.47
2019-01-23T19:56:28.925Z,-1.44
2019-01-23T19:58:58.735Z,-1.43
2019-01-23T20:01:28.547Z,-1.44
2019-01-23T20:03:58.707Z,-1.43
2019-01-23T20:06:28.845Z,-1.41
2019-01-23T20:08:58.838Z,-1.39
2019-01-23T20:11:28.695Z,-1.41
2019-01-23T20:13:58.602Z,-1.46
2019-01-23T20:16:29.193Z,-1.48
2019-01-23T20:18:59.799Z,-1.47
2019-01-23T20:21:30.000Z,-1.48
2019-01-23T20:23:59.811Z,-1.50
2019-01-23T20:26:29.732Z,-1.50
2019-01-23T20:28:59.543Z,-1.48
2019-01-23T20:31:29.406Z,-1.50
2019-01-23T20:33:59.223Z,-1.52
2019-01-23T20:36:29.185Z,-1.53
2019-01-23T20:38:59.075Z,-1.54
2019-01-23T20:41:28.903Z,-1.53
2019-01-23T20:43:59.017Z,-1.49
2019-01-23T20:46:29.083Z,-1.46
2019-01-23T20:48:58.877Z,-1.46
2019-01-23T20:51:28.734Z,-1.52
2019-01-23T20:53:58.708Z,-1.49
2019-01-23T20:56:30.494Z,-1.46
2019-01-23T20:59:00.315Z,-1.50
2019-01-23T21:01:30.274Z,-1.50
2019-01-23T21:04:00.180Z,-1.47
2019-01-23T21:06:35.740Z,-1.44
2019-01-23T21:09:08.818Z,-1.40
2019-01-23T21:11:38.917Z,-1.40
2019-01-23T21:14:08.591Z,-1.46
2019-01-23T21:16:39.482Z,-1.44
2019-01-23T21:19:09.344Z,-1.44
2019-01-23T21:21:39.166Z,-1.42
2019-01-23T21:24:09.080Z,-1.45
2019-01-23T21:26:38.928Z,-1.43
2019-01-23T21:29:08.764Z,-1.48
2019-01-23T21:31:40.227Z,-1.51
2019-01-23T21:34:10.546Z,-1.49
2019-01-23T21:36:41.082Z,-1.52
2019-01-23T21:39:12.025Z,-1.50
2019-01-23T21:41:41.830Z,-1.53
2019-01-23T21:44:11.995Z,-1.54
2019-01-23T21:46:41.997Z,-1.57
2019-01-23T21:49:11.920Z,-1.55
2019-01-23T21:51:42.626Z,-1.48
2019-01-23T21:54:12.681Z,-1.44
2019-01-23T21:56:42.563Z,-1.48
2019-01-23T21:59:12.546Z,-1.46
2019-01-23T22:01:43.943Z,-1.44
2019-01-23T22:04:14.501Z,-1.49
2019-01-23T22:06:44.359Z,-1.48
2019-01-23T22:09:14.212Z,-1.47
2019-01-23T22:11:44.008Z,-1.46
2019-01-23T22:14:13.879Z,-1.48
2019-01-23T22:16:43.682Z,-1.47
2019-01-23T22:19:13.471Z,-1.52
2019-01-23T22:21:43.286Z,-1.50
2019-01-23T22:24:13.101Z,-1.55
2019-01-23T22:26:42.940Z,-1.56
2019-01-23T22:29:12.750Z,-1.59
2019-01-23T22:31:43.386Z,-1.58
2019-01-23T22:34:13.383Z,-1.52
2019-01-23T22:36:43.349Z,-1.52
2019-01-23T22:39:13.250Z,-1.51
2019-01-23T22:41:43.036Z,-1.52
2019-01-23T22:44:12.870Z,-1.51
2019-01-23T22:46:42.795Z,-1.52
2019-01-23T22:49:12.598Z,-1.52
2019-01-23T22:51:42.383Z,-1.49
2019-01-23T22:54:12.224Z,-1.47
2019-01-23T22:56:41.931Z,-1.49
2019-01-23T22:59:11.968Z,-1.50
2019-01-23T23:01:41.778Z,-1.50
2019-01-23T23:04:11.498Z,-1.52
2019-01-23T23:06:42.439Z,-1.52
2019-01-23T23:09:12.201Z,-1.53
2019-01-23T23:11:41.863Z,-1.54
2019-01-23T23:14:11.640Z,-1.55
2019-01-23T23:16:41.501Z,-1.56
2019-01-23T23:19:11.314Z,-1.58
2019-01-23T23:21:41.033Z,-1.57
2019-01-23T23:24:10.786Z,-1.61
2019-01-23T23:26:40.563Z,-1.61
2019-01-23T23:29:11.303Z,-1.63
2019-01-23T23:31:41.100Z,-1.60
2019-01-23T23:34:10.880Z,-1.60
2019-01-23T23:36:40.658Z,-1.56
2019-01-23T23:39:10.464Z,-1.58
2019-01-23T23:41:40.256Z,-1.58
2019-01-23T23:44:09.959Z,-1.61
2019-01-23T23:46:39.728Z,-1.62
2019-01-23T23:49:09.566Z,-1.64
2019-01-23T23:51:39.375Z,-1.64
2019-01-23T23:54:09.137Z,-1.64
2019-01-23T23:56:39.004Z,-1.66
2019-01-23T23:59:08.810Z,-1.64
